sensor_id;sensor_type;location;lat;lon;timestamp;P1;durP1;ratioP1;P2;durP2;ratioP2
803;SDS011;25687;49.976;8.240;2022-10-16T00:01:16;3.73;;;2.07;;
803;SDS011;25687;49.976;8.240;2022-10-16T00:03:44;2.67;;;2.00;;
803;SDS011;25687;49.976;8.240;2022-10-16T00:06:10;3.93;;;2.00;;
803;SDS011;25687;49.976;8.240;2022-10-16T00:08:36;6.13;;;2.13;;
803;SDS011;25687;49.976;8.240;2022-10-16T00:11:03;1.60;;;1.43;;
803;SDS011;25687;49.976;8.240;2022-10-16T00:13:38;2.77;;;1.93;;
803;SDS011;25687;49.976;8.240;2022-10-16T00:16:04;2.47;;;1.80;;
803;SDS011;25687;49.976;8.240;2022-10-16T00:18:30;2.50;;;2.10;;
803;SDS011;25687;49.976;8.240;2022-10-16T00:21:01;4.90;;;2.10;;
803;SDS011;25687;49.976;8.240;2022-10-16T00:23:31;1.80;;;1.70;;
803;SDS011;25687;49.976;8.240;2022-10-16T00:25:57;2.33;;;2.13;;
803;SDS011;25687;49.976;8.240;2022-10-16T00:28:24;2.20;;;2.00;;
803;SDS011;25687;49.976;8.240;2022-10-16T00:30:50;5.80;;;2.10;;
803;SDS011;25687;49.976;8.240;2022-10-16T00:33:16;2.10;;;2.00;;
803;SDS011;25687;49.976;8.240;2022-10-16T00:35:41;2.37;;;2.17;;
803;SDS011;25687;49.976;8.240;2022-10-16T00:38:06;3.20;;;2.00;;
803;SDS011;25687;49.976;8.240;2022-10-16T00:40:32;2.70;;;2.50;;
803;SDS011;25687;49.976;8.240;2022-10-16T00:42:57;2.73;;;2.17;;
803;SDS011;25687;49.976;8.240;2022-10-16T00:45:23;2.60;;;2.20;;
803;SDS011;25687;49.976;8.240;2022-10-16T00:47:49;3.60;;;2.10;;
803;SDS011;25687;49.976;8.240;2022-10-16T00:50:18;5.23;;;1.93;;
803;SDS011;25687;49.976;8.240;2022-10-16T00:52:54;5.30;;;3.30;;
803;SDS011;25687;49.976;8.240;2022-10-16T00:55:20;5.30;;;3.70;;
803;SDS011;25687;49.976;8.240;2022-10-16T00:57:46;6.60;;;4.13;;
803;SDS011;25687;49.976;8.240;2022-10-16T01:00:16;3.20;;;2.90;;
803;SDS011;25687;49.976;8.240;2022-10-16T01:02:56;5.97;;;3.23;;
803;SDS011;25687;49.976;8.240;2022-10-16T01:05:25;3.90;;;2.40;;
803;SDS011;25687;49.976;8.240;2022-10-16T01:16:06;5.63;;;2.60;;
803;SDS011;25687;49.976;8.240;2022-10-16T01:18:46;2.60;;;2.40;;
803;SDS011;25687;49.976;8.240;2022-10-16T01:21:22;5.13;;;3.30;;
803;SDS011;25687;49.976;8.240;2022-10-16T01:35:04;3.97;;;2.77;;
803;SDS011;25687;49.976;8.240;2022-10-16T01:37:39;4.23;;;3.03;;
803;SDS011;25687;49.976;8.240;2022-10-16T01:40:09;3.03;;;2.77;;
803;SDS011;25687;49.976;8.240;2022-10-16T01:42:39;2.43;;;2.27;;
803;SDS011;25687;49.976;8.240;2022-10-16T01:45:08;5.90;;;2.63;;
803;SDS011;25687;49.976;8.240;2022-10-16T01:47:38;3.37;;;2.80;;
803;SDS011;25687;49.976;8.240;2022-10-16T01:50:05;2.90;;;2.70;;
803;SDS011;25687;49.976;8.240;2022-10-16T01:52:34;4.60;;;2.83;;
803;SDS011;25687;49.976;8.240;2022-10-16T01:55:02;2.80;;;2.60;;
803;SDS011;25687;49.976;8.240;2022-10-16T01:57:30;5.90;;;2.77;;
803;SDS011;25687;49.976;8.240;2022-10-16T02:00:01;3.07;;;2.63;;
803;SDS011;25687;49.976;8.240;2022-10-16T02:02:32;3.90;;;3.50;;
803;SDS011;25687;49.976;8.240;2022-10-16T02:05:02;3.63;;;3.30;;
803;SDS011;25687;49.976;8.240;2022-10-16T02:07:33;4.23;;;2.90;;
803;SDS011;25687;49.976;8.240;2022-10-16T02:09:59;4.53;;;2.83;;
803;SDS011;25687;49.976;8.240;2022-10-16T02:12:26;3.40;;;3.10;;
803;SDS011;25687;49.976;8.240;2022-10-16T02:14:54;3.10;;;2.70;;
803;SDS011;25687;49.976;8.240;2022-10-16T02:17:20;5.00;;;2.93;;
803;SDS011;25687;49.976;8.240;2022-10-16T02:19:47;4.33;;;3.00;;
803;SDS011;25687;49.976;8.240;2022-10-16T02:22:37;3.33;;;2.63;;
803;SDS011;25687;49.976;8.240;2022-10-16T02:25:24;5.47;;;3.40;;
803;SDS011;25687;49.976;8.240;2022-10-16T02:28:00;5.07;;;3.30;;
803;SDS011;25687;49.976;8.240;2022-10-16T02:30:41;5.37;;;3.00;;
803;SDS011;25687;49.976;8.240;2022-10-16T02:33:12;3.70;;;3.40;;
803;SDS011;25687;49.976;8.240;2022-10-16T02:35:39;6.23;;;3.20;;
803;SDS011;25687;49.976;8.240;2022-10-16T02:38:07;5.00;;;3.00;;
803;SDS011;25687;49.976;8.240;2022-10-16T02:40:34;2.97;;;2.77;;
803;SDS011;25687;49.976;8.240;2022-10-16T02:43:00;5.23;;;2.90;;
803;SDS011;25687;49.976;8.240;2022-10-16T02:45:28;3.60;;;3.30;;
803;SDS011;25687;49.976;8.240;2022-10-16T02:47:54;3.60;;;2.93;;
803;SDS011;25687;49.976;8.240;2022-10-16T02:50:19;4.17;;;3.03;;
803;SDS011;25687;49.976;8.240;2022-10-16T02:52:45;3.60;;;3.30;;
803;SDS011;25687;49.976;8.240;2022-10-16T02:55:10;7.27;;;3.97;;
803;SDS011;25687;49.976;8.240;2022-10-16T02:57:35;4.10;;;3.80;;
803;SDS011;25687;49.976;8.240;2022-10-16T03:00:03;3.90;;;3.60;;
803;SDS011;25687;49.976;8.240;2022-10-16T03:02:29;5.03;;;3.30;;
803;SDS011;25687;49.976;8.240;2022-10-16T03:04:54;11.07;;;3.87;;
803;SDS011;25687;49.976;8.240;2022-10-16T03:07:20;4.03;;;3.73;;
803;SDS011;25687;49.976;8.240;2022-10-16T03:09:45;3.80;;;3.50;;
803;SDS011;25687;49.976;8.240;2022-10-16T03:12:10;4.17;;;3.77;;
803;SDS011;25687;49.976;8.240;2022-10-16T03:14:37;6.03;;;3.47;;
803;SDS011;25687;49.976;8.240;2022-10-16T03:17:02;5.30;;;4.07;;
803;SDS011;25687;49.976;8.240;2022-10-16T03:19:27;4.70;;;3.93;;
803;SDS011;25687;49.976;8.240;2022-10-16T03:21:52;5.60;;;5.10;;
803;SDS011;25687;49.976;8.240;2022-10-16T03:24:18;4.27;;;3.97;;
803;SDS011;25687;49.976;8.240;2022-10-16T03:26:43;3.90;;;3.50;;
803;SDS011;25687;49.976;8.240;2022-10-16T03:29:08;4.90;;;3.40;;
803;SDS011;25687;49.976;8.240;2022-10-16T03:31:34;3.93;;;3.60;;
803;SDS011;25687;49.976;8.240;2022-10-16T03:33:59;5.40;;;4.47;;
803;SDS011;25687;49.976;8.240;2022-10-16T03:36:24;3.60;;;3.30;;
803;SDS011;25687;49.976;8.240;2022-10-16T03:38:50;4.37;;;3.40;;
803;SDS011;25687;49.976;8.240;2022-10-16T03:41:15;3.27;;;2.97;;
803;SDS011;25687;49.976;8.240;2022-10-16T03:43:40;4.10;;;3.70;;
803;SDS011;25687;49.976;8.240;2022-10-16T03:46:06;4.10;;;3.00;;
803;SDS011;25687;49.976;8.240;2022-10-16T03:48:31;3.03;;;2.73;;
803;SDS011;25687;49.976;8.240;2022-10-16T03:50:57;4.00;;;2.93;;
803;SDS011;25687;49.976;8.240;2022-10-16T03:53:22;5.30;;;3.30;;
803;SDS011;25687;49.976;8.240;2022-10-16T03:55:48;3.97;;;3.30;;
803;SDS011;25687;49.976;8.240;2022-10-16T03:58:13;4.27;;;3.13;;
803;SDS011;25687;49.976;8.240;2022-10-16T04:00:42;3.03;;;2.80;;
803;SDS011;25687;49.976;8.240;2022-10-16T04:03:09;3.77;;;2.93;;
803;SDS011;25687;49.976;8.240;2022-10-16T04:05:35;4.50;;;2.73;;
803;SDS011;25687;49.976;8.240;2022-10-16T04:08:00;4.10;;;2.80;;
803;SDS011;25687;49.976;8.240;2022-10-16T04:10:26;2.70;;;2.50;;
803;SDS011;25687;49.976;8.240;2022-10-16T04:12:51;2.47;;;2.33;;
803;SDS011;25687;49.976;8.240;2022-10-16T04:15:16;4.43;;;2.93;;
803;SDS011;25687;49.976;8.240;2022-10-16T04:17:42;2.63;;;2.43;;
803;SDS011;25687;49.976;8.240;2022-10-16T04:20:07;2.97;;;2.27;;
803;SDS011;25687;49.976;8.240;2022-10-16T04:22:33;2.80;;;2.60;;
803;SDS011;25687;49.976;8.240;2022-10-16T04:24:58;3.57;;;2.50;;
803;SDS011;25687;49.976;8.240;2022-10-16T04:27:23;3.33;;;2.90;;
803;SDS011;25687;49.976;8.240;2022-10-16T04:29:49;7.53;;;3.20;;
803;SDS011;25687;49.976;8.240;2022-10-16T04:32:14;2.90;;;2.70;;
803;SDS011;25687;49.976;8.240;2022-10-16T04:34:39;2.63;;;2.40;;
803;SDS011;25687;49.976;8.240;2022-10-16T04:37:05;4.10;;;3.00;;
803;SDS011;25687;49.976;8.240;2022-10-16T04:39:31;4.97;;;2.50;;
803;SDS011;25687;49.976;8.240;2022-10-16T04:41:56;3.60;;;2.90;;
803;SDS011;25687;49.976;8.240;2022-10-16T04:44:21;3.23;;;3.00;;
803;SDS011;25687;49.976;8.240;2022-10-16T04:46:47;3.93;;;2.60;;
803;SDS011;25687;49.976;8.240;2022-10-16T04:49:14;4.87;;;2.83;;
803;SDS011;25687;49.976;8.240;2022-10-16T04:51:40;3.47;;;2.80;;
803;SDS011;25687;49.976;8.240;2022-10-16T04:54:05;3.33;;;3.00;;
803;SDS011;25687;49.976;8.240;2022-10-16T04:56:30;3.10;;;2.90;;
803;SDS011;25687;49.976;8.240;2022-10-16T04:58:56;2.93;;;2.63;;
803;SDS011;25687;49.976;8.240;2022-10-16T05:01:21;3.40;;;2.40;;
803;SDS011;25687;49.976;8.240;2022-10-16T05:03:46;2.90;;;2.70;;
803;SDS011;25687;49.976;8.240;2022-10-16T05:06:11;3.10;;;2.70;;
803;SDS011;25687;49.976;8.240;2022-10-16T05:08:37;3.23;;;2.80;;
803;SDS011;25687;49.976;8.240;2022-10-16T05:11:02;4.07;;;2.50;;
803;SDS011;25687;49.976;8.240;2022-10-16T05:13:27;3.03;;;2.70;;
803;SDS011;25687;49.976;8.240;2022-10-16T05:15:53;2.67;;;2.47;;
803;SDS011;25687;49.976;8.240;2022-10-16T05:18:18;4.03;;;2.27;;
803;SDS011;25687;49.976;8.240;2022-10-16T05:20:43;2.60;;;2.30;;
803;SDS011;25687;49.976;8.240;2022-10-16T05:23:09;2.57;;;2.37;;
803;SDS011;25687;49.976;8.240;2022-10-16T05:25:35;2.90;;;2.60;;
803;SDS011;25687;49.976;8.240;2022-10-16T05:28:01;2.40;;;2.20;;
803;SDS011;25687;49.976;8.240;2022-10-16T05:30:26;2.43;;;2.30;;
803;SDS011;25687;49.976;8.240;2022-10-16T05:32:51;5.20;;;2.80;;
803;SDS011;25687;49.976;8.240;2022-10-16T05:35:17;7.97;;;2.63;;
803;SDS011;25687;49.976;8.240;2022-10-16T05:37:43;3.77;;;2.40;;
803;SDS011;25687;49.976;8.240;2022-10-16T05:40:09;2.40;;;2.20;;
803;SDS011;25687;49.976;8.240;2022-10-16T05:42:35;3.73;;;2.70;;
803;SDS011;25687;49.976;8.240;2022-10-16T05:45:00;2.80;;;2.60;;
803;SDS011;25687;49.976;8.240;2022-10-16T05:47:26;2.80;;;2.60;;
803;SDS011;25687;49.976;8.240;2022-10-16T05:49:51;2.80;;;2.60;;
803;SDS011;25687;49.976;8.240;2022-10-16T05:52:17;4.03;;;3.20;;
803;SDS011;25687;49.976;8.240;2022-10-16T05:54:42;2.90;;;2.70;;
803;SDS011;25687;49.976;8.240;2022-10-16T05:57:08;4.93;;;3.20;;
803;SDS011;25687;49.976;8.240;2022-10-16T05:59:33;4.03;;;3.10;;
803;SDS011;25687;49.976;8.240;2022-10-16T06:01:59;6.10;;;2.97;;
803;SDS011;25687;49.976;8.240;2022-10-16T06:04:24;4.87;;;2.63;;
803;SDS011;25687;49.976;8.240;2022-10-16T06:06:49;3.30;;;2.43;;
803;SDS011;25687;49.976;8.240;2022-10-16T06:09:14;2.73;;;2.53;;
803;SDS011;25687;49.976;8.240;2022-10-16T06:11:40;8.37;;;2.60;;
803;SDS011;25687;49.976;8.240;2022-10-16T06:14:05;2.70;;;2.50;;
803;SDS011;25687;49.976;8.240;2022-10-16T06:16:34;3.23;;;2.77;;
803;SDS011;25687;49.976;8.240;2022-10-16T06:19:01;4.33;;;2.80;;
803;SDS011;25687;49.976;8.240;2022-10-16T06:21:27;3.40;;;3.00;;
803;SDS011;25687;49.976;8.240;2022-10-16T06:23:54;3.30;;;2.67;;
803;SDS011;25687;49.976;8.240;2022-10-16T06:26:22;5.03;;;3.60;;
803;SDS011;25687;49.976;8.240;2022-10-16T06:28:49;3.07;;;2.87;;
803;SDS011;25687;49.976;8.240;2022-10-16T06:31:15;4.47;;;2.73;;
803;SDS011;25687;49.976;8.240;2022-10-16T06:33:41;3.40;;;2.83;;
803;SDS011;25687;49.976;8.240;2022-10-16T06:36:08;3.20;;;2.40;;
803;SDS011;25687;49.976;8.240;2022-10-16T06:38:35;3.93;;;2.67;;
803;SDS011;25687;49.976;8.240;2022-10-16T06:41:01;4.83;;;2.70;;
803;SDS011;25687;49.976;8.240;2022-10-16T06:43:30;3.00;;;2.63;;
803;SDS011;25687;49.976;8.240;2022-10-16T06:46:03;5.67;;;3.03;;
803;SDS011;25687;49.976;8.240;2022-10-16T06:48:32;4.50;;;3.57;;
803;SDS011;25687;49.976;8.240;2022-10-16T06:53:26;4.30;;;3.13;;
803;SDS011;25687;49.976;8.240;2022-10-16T06:55:53;5.50;;;3.13;;
803;SDS011;25687;49.976;8.240;2022-10-16T06:58:18;5.23;;;3.73;;
803;SDS011;25687;49.976;8.240;2022-10-16T07:00:44;4.70;;;4.30;;
803;SDS011;25687;49.976;8.240;2022-10-16T07:03:09;5.70;;;5.10;;
803;SDS011;25687;49.976;8.240;2022-10-16T07:05:41;5.33;;;4.83;;
803;SDS011;25687;49.976;8.240;2022-10-16T07:08:07;5.20;;;4.57;;
803;SDS011;25687;49.976;8.240;2022-10-16T07:10:34;8.37;;;5.33;;
803;SDS011;25687;49.976;8.240;2022-10-16T07:13:00;6.60;;;4.50;;
803;SDS011;25687;49.976;8.240;2022-10-16T07:15:25;4.60;;;4.30;;
803;SDS011;25687;49.976;8.240;2022-10-16T07:17:51;7.30;;;4.87;;
803;SDS011;25687;49.976;8.240;2022-10-16T07:20:17;4.93;;;4.53;;
803;SDS011;25687;49.976;8.240;2022-10-16T07:22:43;5.03;;;4.63;;
803;SDS011;25687;49.976;8.240;2022-10-16T07:25:09;6.43;;;4.53;;
803;SDS011;25687;49.976;8.240;2022-10-16T07:27:36;5.73;;;4.80;;
803;SDS011;25687;49.976;8.240;2022-10-16T07:30:01;8.33;;;5.33;;
803;SDS011;25687;49.976;8.240;2022-10-16T07:32:27;5.13;;;4.73;;
803;SDS011;25687;49.976;8.240;2022-10-16T07:34:52;5.80;;;4.63;;
803;SDS011;25687;49.976;8.240;2022-10-16T07:37:18;5.83;;;3.90;;
803;SDS011;25687;49.976;8.240;2022-10-16T07:39:43;5.43;;;4.93;;
803;SDS011;25687;49.976;8.240;2022-10-16T07:42:08;4.80;;;4.37;;
803;SDS011;25687;49.976;8.240;2022-10-16T07:44:34;5.67;;;4.00;;
803;SDS011;25687;49.976;8.240;2022-10-16T07:46:59;5.07;;;4.37;;
803;SDS011;25687;49.976;8.240;2022-10-16T07:49:24;6.30;;;4.43;;
803;SDS011;25687;49.976;8.240;2022-10-16T07:51:50;4.87;;;4.10;;
803;SDS011;25687;49.976;8.240;2022-10-16T07:54:15;5.40;;;4.57;;
803;SDS011;25687;49.976;8.240;2022-10-16T07:56:41;5.33;;;4.80;;
803;SDS011;25687;49.976;8.240;2022-10-16T07:59:06;8.17;;;4.57;;
803;SDS011;25687;49.976;8.240;2022-10-16T08:01:32;5.73;;;5.00;;
803;SDS011;25687;49.976;8.240;2022-10-16T08:03:57;4.70;;;4.30;;
803;SDS011;25687;49.976;8.240;2022-10-16T08:06:22;4.63;;;4.23;;
803;SDS011;25687;49.976;8.240;2022-10-16T08:08:48;4.87;;;4.27;;
803;SDS011;25687;49.976;8.240;2022-10-16T08:11:13;4.83;;;4.20;;
803;SDS011;25687;49.976;8.240;2022-10-16T08:13:40;4.30;;;3.90;;
803;SDS011;25687;49.976;8.240;2022-10-16T08:16:06;4.43;;;4.03;;
803;SDS011;25687;49.976;8.240;2022-10-16T08:18:38;4.83;;;3.87;;
803;SDS011;25687;49.976;8.240;2022-10-16T08:21:05;3.63;;;3.33;;
803;SDS011;25687;49.976;8.240;2022-10-16T08:23:31;3.87;;;3.53;;
803;SDS011;25687;49.976;8.240;2022-10-16T08:26:03;4.13;;;3.50;;
803;SDS011;25687;49.976;8.240;2022-10-16T08:28:30;3.90;;;3.60;;
803;SDS011;25687;49.976;8.240;2022-10-16T08:30:55;10.27;;;3.93;;
803;SDS011;25687;49.976;8.240;2022-10-16T08:33:22;4.30;;;3.50;;
803;SDS011;25687;49.976;8.240;2022-10-16T08:35:53;3.87;;;3.30;;
803;SDS011;25687;49.976;8.240;2022-10-16T08:38:19;3.70;;;3.37;;
803;SDS011;25687;49.976;8.240;2022-10-16T08:40:45;5.47;;;3.30;;
803;SDS011;25687;49.976;8.240;2022-10-16T08:46:06;4.63;;;3.10;;
803;SDS011;25687;49.976;8.240;2022-10-16T08:48:50;6.50;;;3.87;;
803;SDS011;25687;49.976;8.240;2022-10-16T08:51:19;4.97;;;3.13;;
803;SDS011;25687;49.976;8.240;2022-10-16T08:53:55;4.27;;;3.87;;
803;SDS011;25687;49.976;8.240;2022-10-16T08:56:22;6.60;;;4.37;;
803;SDS011;25687;49.976;8.240;2022-10-16T08:58:48;5.67;;;3.90;;
803;SDS011;25687;49.976;8.240;2022-10-16T09:01:15;5.33;;;3.87;;
803;SDS011;25687;49.976;8.240;2022-10-16T09:06:33;7.10;;;3.73;;
803;SDS011;25687;49.976;8.240;2022-10-16T09:23:31;5.17;;;3.07;;
803;SDS011;25687;49.976;8.240;2022-10-16T09:26:00;3.83;;;3.43;;
803;SDS011;25687;49.976;8.240;2022-10-16T09:28:27;4.97;;;3.80;;
803;SDS011;25687;49.976;8.240;2022-10-16T09:30:52;4.83;;;3.90;;
803;SDS011;25687;49.976;8.240;2022-10-16T09:33:20;4.87;;;3.80;;
803;SDS011;25687;49.976;8.240;2022-10-16T09:35:52;7.03;;;3.50;;
803;SDS011;25687;49.976;8.240;2022-10-16T09:38:25;4.03;;;2.50;;
803;SDS011;25687;49.976;8.240;2022-10-16T09:40:56;3.57;;;2.70;;
803;SDS011;25687;49.976;8.240;2022-10-16T09:43:32;2.77;;;2.57;;
803;SDS011;25687;49.976;8.240;2022-10-16T09:46:05;3.63;;;2.50;;
803;SDS011;25687;49.976;8.240;2022-10-16T09:48:44;3.00;;;2.63;;
803;SDS011;25687;49.976;8.240;2022-10-16T09:51:18;3.17;;;2.87;;
803;SDS011;25687;49.976;8.240;2022-10-16T09:53:45;4.00;;;2.67;;
803;SDS011;25687;49.976;8.240;2022-10-16T09:56:12;3.77;;;2.60;;
803;SDS011;25687;49.976;8.240;2022-10-16T09:58:53;3.00;;;2.70;;
803;SDS011;25687;49.976;8.240;2022-10-16T10:01:21;3.87;;;3.47;;
803;SDS011;25687;49.976;8.240;2022-10-16T10:03:51;4.43;;;3.37;;
803;SDS011;25687;49.976;8.240;2022-10-16T10:06:26;3.20;;;2.70;;
803;SDS011;25687;49.976;8.240;2022-10-16T10:09:04;6.47;;;2.60;;
803;SDS011;25687;49.976;8.240;2022-10-16T10:14:19;6.60;;;2.40;;
803;SDS011;25687;49.976;8.240;2022-10-16T10:16:46;2.80;;;2.47;;
803;SDS011;25687;49.976;8.240;2022-10-16T10:19:13;7.77;;;2.70;;
803;SDS011;25687;49.976;8.240;2022-10-16T10:21:40;4.07;;;2.30;;
803;SDS011;25687;49.976;8.240;2022-10-16T10:24:09;2.00;;;1.70;;
803;SDS011;25687;49.976;8.240;2022-10-16T10:26:35;4.00;;;2.60;;
803;SDS011;25687;49.976;8.240;2022-10-16T10:32:28;4.47;;;2.43;;
803;SDS011;25687;49.976;8.240;2022-10-16T10:35:11;4.13;;;2.20;;
803;SDS011;25687;49.976;8.240;2022-10-16T10:44:11;4.57;;;2.40;;
803;SDS011;25687;49.976;8.240;2022-10-16T10:51:55;1.90;;;1.80;;
803;SDS011;25687;49.976;8.240;2022-10-16T10:54:27;3.80;;;1.60;;
803;SDS011;25687;49.976;8.240;2022-10-16T10:57:20;2.87;;;1.40;;
803;SDS011;25687;49.976;8.240;2022-10-16T11:00:04;1.20;;;1.10;;
803;SDS011;25687;49.976;8.240;2022-10-16T11:02:37;2.20;;;1.07;;
803;SDS011;25687;49.976;8.240;2022-10-16T11:05:16;2.50;;;1.20;;
803;SDS011;25687;49.976;8.240;2022-10-16T11:07:55;2.67;;;1.43;;
803;SDS011;25687;49.976;8.240;2022-10-16T11:10:26;3.33;;;1.40;;
803;SDS011;25687;49.976;8.240;2022-10-16T11:12:59;3.17;;;1.47;;
803;SDS011;25687;49.976;8.240;2022-10-16T11:15:36;3.17;;;1.53;;
803;SDS011;25687;49.976;8.240;2022-10-16T11:20:59;2.27;;;1.60;;
803;SDS011;25687;49.976;8.240;2022-10-16T11:26:14;1.77;;;1.67;;
803;SDS011;25687;49.976;8.240;2022-10-16T11:28:48;1.97;;;1.40;;
803;SDS011;25687;49.976;8.240;2022-10-16T11:31:20;2.90;;;1.30;;
803;SDS011;25687;49.976;8.240;2022-10-16T11:33:49;2.87;;;1.57;;
803;SDS011;25687;49.976;8.240;2022-10-16T11:36:23;4.60;;;2.00;;
803;SDS011;25687;49.976;8.240;2022-10-16T11:39:04;3.33;;;1.50;;
803;SDS011;25687;49.976;8.240;2022-10-16T11:41:34;3.03;;;1.80;;
803;SDS011;25687;49.976;8.240;2022-10-16T11:44:19;3.80;;;1.83;;
803;SDS011;25687;49.976;8.240;2022-10-16T11:47:19;3.87;;;2.17;;
803;SDS011;25687;49.976;8.240;2022-10-16T11:49:58;1.77;;;1.67;;
803;SDS011;25687;49.976;8.240;2022-10-16T11:53:11;2.67;;;1.90;;
803;SDS011;25687;49.976;8.240;2022-10-16T11:55:20;4.07;;;2.27;;
803;SDS011;25687;49.976;8.240;2022-10-16T11:57:54;2.37;;;2.17;;
803;SDS011;25687;49.976;8.240;2022-10-16T12:00:31;3.40;;;2.20;;
803;SDS011;25687;49.976;8.240;2022-10-16T12:08:17;2.43;;;1.50;;
803;SDS011;25687;49.976;8.240;2022-10-16T12:10:44;1.50;;;1.40;;
803;SDS011;25687;49.976;8.240;2022-10-16T12:13:31;2.87;;;1.43;;
803;SDS011;25687;49.976;8.240;2022-10-16T12:16:18;1.73;;;1.50;;
803;SDS011;25687;49.976;8.240;2022-10-16T12:18:47;1.77;;;1.17;;
803;SDS011;25687;49.976;8.240;2022-10-16T12:21:14;2.10;;;1.47;;
803;SDS011;25687;49.976;8.240;2022-10-16T12:26:24;2.80;;;1.90;;
803;SDS011;25687;49.976;8.240;2022-10-16T12:28:54;1.73;;;1.23;;
803;SDS011;25687;49.976;8.240;2022-10-16T12:31:21;2.17;;;1.50;;
803;SDS011;25687;49.976;8.240;2022-10-16T12:34:49;4.43;;;1.20;;
803;SDS011;25687;49.976;8.240;2022-10-16T12:36:48;2.50;;;1.33;;
803;SDS011;25687;49.976;8.240;2022-10-16T12:39:24;2.43;;;1.40;;
803;SDS011;25687;49.976;8.240;2022-10-16T12:42:34;1.23;;;1.13;;
803;SDS011;25687;49.976;8.240;2022-10-16T12:44:45;2.13;;;1.20;;
803;SDS011;25687;49.976;8.240;2022-10-16T12:49:53;2.23;;;1.97;;
803;SDS011;25687;49.976;8.240;2022-10-16T12:54:55;1.20;;;1.10;;
803;SDS011;25687;49.976;8.240;2022-10-16T13:00:25;1.43;;;1.20;;
803;SDS011;25687;49.976;8.240;2022-10-16T13:20:16;1.53;;;1.27;;
803;SDS011;25687;49.976;8.240;2022-10-16T13:22:45;4.43;;;1.27;;
803;SDS011;25687;49.976;8.240;2022-10-16T13:25:23;1.47;;;1.30;;
803;SDS011;25687;49.976;8.240;2022-10-16T13:27:55;3.33;;;1.27;;
803;SDS011;25687;49.976;8.240;2022-10-16T13:30:30;1.30;;;1.20;;
803;SDS011;25687;49.976;8.240;2022-10-16T13:33:04;4.10;;;1.23;;
803;SDS011;25687;49.976;8.240;2022-10-16T13:35:48;1.30;;;1.20;;
803;SDS011;25687;49.976;8.240;2022-10-16T13:38:26;4.63;;;1.40;;
803;SDS011;25687;49.976;8.240;2022-10-16T13:40:57;2.53;;;1.47;;
803;SDS011;25687;49.976;8.240;2022-10-16T13:43:39;2.27;;;1.60;;
803;SDS011;25687;49.976;8.240;2022-10-16T13:46:12;1.70;;;1.60;;
803;SDS011;25687;49.976;8.240;2022-10-16T13:48:41;1.30;;;1.20;;
803;SDS011;25687;49.976;8.240;2022-10-16T13:51:12;3.70;;;1.73;;
803;SDS011;25687;49.976;8.240;2022-10-16T13:53:40;3.90;;;1.47;;
803;SDS011;25687;49.976;8.240;2022-10-16T13:56:07;2.67;;;2.00;;
803;SDS011;25687;49.976;8.240;2022-10-16T13:58:38;2.73;;;1.87;;
803;SDS011;25687;49.976;8.240;2022-10-16T14:01:05;1.67;;;1.53;;
803;SDS011;25687;49.976;8.240;2022-10-16T14:03:41;2.13;;;1.83;;
803;SDS011;25687;49.976;8.240;2022-10-16T14:06:11;2.57;;;1.80;;
803;SDS011;25687;49.976;8.240;2022-10-16T14:08:50;2.30;;;2.10;;
803;SDS011;25687;49.976;8.240;2022-10-16T14:11:24;2.33;;;1.73;;
803;SDS011;25687;49.976;8.240;2022-10-16T14:13:50;3.10;;;2.10;;
803;SDS011;25687;49.976;8.240;2022-10-16T14:16:20;2.50;;;2.30;;
803;SDS011;25687;49.976;8.240;2022-10-16T14:18:56;2.17;;;2.00;;
803;SDS011;25687;49.976;8.240;2022-10-16T14:21:23;3.93;;;2.47;;
803;SDS011;25687;49.976;8.240;2022-10-16T14:23:50;2.30;;;1.80;;
803;SDS011;25687;49.976;8.240;2022-10-16T14:26:19;4.63;;;2.07;;
803;SDS011;25687;49.976;8.240;2022-10-16T14:28:47;2.83;;;2.20;;
803;SDS011;25687;49.976;8.240;2022-10-16T14:33:55;6.00;;;2.50;;
803;SDS011;25687;49.976;8.240;2022-10-16T14:36:24;2.80;;;2.50;;
803;SDS011;25687;49.976;8.240;2022-10-16T14:41:42;3.63;;;1.97;;
803;SDS011;25687;49.976;8.240;2022-10-16T14:44:10;2.80;;;2.00;;
803;SDS011;25687;49.976;8.240;2022-10-16T14:46:38;2.20;;;2.00;;
803;SDS011;25687;49.976;8.240;2022-10-16T14:51:35;4.37;;;2.50;;
803;SDS011;25687;49.976;8.240;2022-10-16T14:54:01;3.87;;;2.57;;
803;SDS011;25687;49.976;8.240;2022-10-16T14:56:29;5.37;;;3.53;;
803;SDS011;25687;49.976;8.240;2022-10-16T14:58:58;2.70;;;2.50;;
803;SDS011;25687;49.976;8.240;2022-10-16T15:01:23;3.87;;;2.70;;
803;SDS011;25687;49.976;8.240;2022-10-16T15:03:48;4.00;;;2.33;;
803;SDS011;25687;49.976;8.240;2022-10-16T15:06:15;3.07;;;2.23;;
803;SDS011;25687;49.976;8.240;2022-10-16T15:08:41;3.17;;;2.70;;
803;SDS011;25687;49.976;8.240;2022-10-16T15:11:13;5.97;;;2.70;;
803;SDS011;25687;49.976;8.240;2022-10-16T15:13:41;4.03;;;3.07;;
803;SDS011;25687;49.976;8.240;2022-10-16T15:16:10;6.17;;;3.20;;
803;SDS011;25687;49.976;8.240;2022-10-16T15:18:37;3.43;;;2.90;;
803;SDS011;25687;49.976;8.240;2022-10-16T15:21:03;3.97;;;3.00;;
803;SDS011;25687;49.976;8.240;2022-10-16T15:23:28;3.17;;;2.90;;
803;SDS011;25687;49.976;8.240;2022-10-16T15:25:54;4.00;;;2.43;;
803;SDS011;25687;49.976;8.240;2022-10-16T15:28:21;3.70;;;3.37;;
803;SDS011;25687;49.976;8.240;2022-10-16T15:30:49;5.30;;;3.97;;
803;SDS011;25687;49.976;8.240;2022-10-16T15:33:20;4.17;;;3.63;;
803;SDS011;25687;49.976;8.240;2022-10-16T15:35:48;5.67;;;4.00;;
803;SDS011;25687;49.976;8.240;2022-10-16T15:38:15;2.77;;;2.57;;
803;SDS011;25687;49.976;8.240;2022-10-16T15:40:41;5.60;;;2.87;;
803;SDS011;25687;49.976;8.240;2022-10-16T15:43:06;4.70;;;2.70;;
803;SDS011;25687;49.976;8.240;2022-10-16T15:45:36;3.97;;;3.30;;
803;SDS011;25687;49.976;8.240;2022-10-16T15:48:01;3.43;;;2.70;;
803;SDS011;25687;49.976;8.240;2022-10-16T15:50:27;4.33;;;3.47;;
803;SDS011;25687;49.976;8.240;2022-10-16T15:52:52;4.53;;;3.30;;
803;SDS011;25687;49.976;8.240;2022-10-16T15:55:17;4.90;;;3.50;;
803;SDS011;25687;49.976;8.240;2022-10-16T15:57:43;3.10;;;2.80;;
803;SDS011;25687;49.976;8.240;2022-10-16T16:00:11;5.80;;;3.20;;
803;SDS011;25687;49.976;8.240;2022-10-16T16:02:39;3.30;;;3.00;;
803;SDS011;25687;49.976;8.240;2022-10-16T16:05:06;6.07;;;3.97;;
803;SDS011;25687;49.976;8.240;2022-10-16T16:07:35;4.97;;;3.67;;
803;SDS011;25687;49.976;8.240;2022-10-16T16:10:03;6.23;;;4.20;;
803;SDS011;25687;49.976;8.240;2022-10-16T16:12:31;5.33;;;4.40;;
803;SDS011;25687;49.976;8.240;2022-10-16T16:14:56;5.03;;;4.50;;
803;SDS011;25687;49.976;8.240;2022-10-16T16:17:22;4.57;;;3.07;;
803;SDS011;25687;49.976;8.240;2022-10-16T16:19:48;4.43;;;4.00;;
803;SDS011;25687;49.976;8.240;2022-10-16T16:22:13;6.03;;;3.67;;
803;SDS011;25687;49.976;8.240;2022-10-16T16:24:39;5.50;;;3.23;;
803;SDS011;25687;49.976;8.240;2022-10-16T16:27:05;4.20;;;3.60;;
803;SDS011;25687;49.976;8.240;2022-10-16T16:29:30;5.97;;;3.70;;
803;SDS011;25687;49.976;8.240;2022-10-16T16:31:56;4.57;;;4.17;;
803;SDS011;25687;49.976;8.240;2022-10-16T16:34:23;10.33;;;9.43;;
803;SDS011;25687;49.976;8.240;2022-10-16T16:36:50;6.03;;;4.93;;
803;SDS011;25687;49.976;8.240;2022-10-16T16:39:15;7.33;;;4.70;;
803;SDS011;25687;49.976;8.240;2022-10-16T16:41:41;7.40;;;4.40;;
803;SDS011;25687;49.976;8.240;2022-10-16T16:44:08;5.03;;;4.57;;
803;SDS011;25687;49.976;8.240;2022-10-16T16:46:35;8.37;;;4.60;;
803;SDS011;25687;49.976;8.240;2022-10-16T16:49:01;5.77;;;4.50;;
803;SDS011;25687;49.976;8.240;2022-10-16T16:51:27;6.23;;;5.43;;
803;SDS011;25687;49.976;8.240;2022-10-16T16:53:53;5.30;;;4.90;;
803;SDS011;25687;49.976;8.240;2022-10-16T16:56:20;5.90;;;4.80;;
803;SDS011;25687;49.976;8.240;2022-10-16T16:58:46;6.17;;;5.57;;
803;SDS011;25687;49.976;8.240;2022-10-16T17:01:13;8.60;;;6.00;;
803;SDS011;25687;49.976;8.240;2022-10-16T17:03:41;6.10;;;5.50;;
803;SDS011;25687;49.976;8.240;2022-10-16T17:06:09;10.17;;;5.60;;
803;SDS011;25687;49.976;8.240;2022-10-16T17:08:35;6.73;;;5.73;;
803;SDS011;25687;49.976;8.240;2022-10-16T17:11:01;6.87;;;6.27;;